Decoded Metar for PAOU (NELSON LAGOON in AK, USA) (IATA:N/A) | Meteo·Mobile Aviation Weather
aviador You're here:

PAOU Decoded Metar

NELSON LAGOON in AK, USA
Report Time2018-10-20 07:56:00
UTC Time2018-10-20 09:00:28
Flight Rules vfr VFR
Wind180° at 08 kt
W.Decomp.*RWY 08: 0.7 kt HW 8.0 kt RCW
W.Rank180° ranks 32
Current wind is below 180° avg. (11.6)
Visibility9999 m
Phenomena:N/A
Clouds:Overcast 055 Hf
Expected CloudBase > 1,200 ft AGL from Temp-Dew spread
Ceiling5,500 ft
Temp05°C (ISA -10)
Dew Point02°C (81% RH)
AAT0.4°C
QNH999 hPa
Density Alt-617 ft
Elevation13 ft
Report Wrong Elevation
Raw Report
PAOU 200756Z AUTO 18008KT 10SM OVC055 05/02 A2950 RMK AO2 SLP991
T00500017=

Extra information for PAOU:More info

Metar Taf Metar & Taf Last 4 Metars F.Rules Stats Wind Profile Meteogram Temp Stats Airport Information Weather charts Add Link Nearby VenuesMetar ALERT Operation Metar Decoded Social comments

AIRNAV info for PAOU